sensor_id;sensor_type;location;lat;lon;timestamp;temperature;humidity
46364;DHT22;32071;49.036;9.344;2022-07-29T12:01:20;29.50;90.50
46364;DHT22;32071;49.036;9.344;2022-07-29T12:03:46;29.50;89.10
46364;DHT22;32071;49.036;9.344;2022-07-29T12:06:12;29.70;88.20
46364;DHT22;32071;49.036;9.344;2022-07-29T12:08:42;29.60;88.90
46364;DHT22;32071;49.036;9.344;2022-07-29T12:11:16;29.60;87.80
46364;DHT22;32071;49.036;9.344;2022-07-29T12:13:41;29.60;87.20
46364;DHT22;32071;49.036;9.344;2022-07-29T12:16:07;29.70;87.20
46364;DHT22;32071;49.036;9.344;2022-07-29T12:18:32;29.90;86.40
46364;DHT22;32071;49.036;9.344;2022-07-29T12:21:00;29.90;86.70
46364;DHT22;32071;49.036;9.344;2022-07-29T12:23:29;30.00;85.70
46364;DHT22;32071;49.036;9.344;2022-07-29T12:25:54;30.00;85.40
46364;DHT22;32071;49.036;9.344;2022-07-29T12:28:21;29.90;84.50
46364;DHT22;32071;49.036;9.344;2022-07-29T12:30:48;29.80;85.20
46364;DHT22;32071;49.036;9.344;2022-07-29T12:33:28;29.70;85.00
46364;DHT22;32071;49.036;9.344;2022-07-29T12:35:57;29.80;86.00
46364;DHT22;32071;49.036;9.344;2022-07-29T12:38:23;30.10;84.40
46364;DHT22;32071;49.036;9.344;2022-07-29T12:40:49;30.20;83.70
46364;DHT22;32071;49.036;9.344;2022-07-29T12:43:19;30.30;82.10
46364;DHT22;32071;49.036;9.344;2022-07-29T12:45:47;30.30;82.60
46364;DHT22;32071;49.036;9.344;2022-07-29T12:48:14;30.40;81.70
46364;DHT22;32071;49.036;9.344;2022-07-29T12:51:12;30.60;81.00
46364;DHT22;32071;49.036;9.344;2022-07-29T12:53:39;30.90;79.70
46364;DHT22;32071;49.036;9.344;2022-07-29T12:56:05;30.80;79.10
46364;DHT22;32071;49.036;9.344;2022-07-29T12:58:40;30.80;78.70
46364;DHT22;32071;49.036;9.344;2022-07-29T13:01:12;30.70;77.20
46364;DHT22;32071;49.036;9.344;2022-07-29T13:03:45;30.40;80.60
46364;DHT22;32071;49.036;9.344;2022-07-29T13:06:28;30.30;81.90
46364;DHT22;32071;49.036;9.344;2022-07-29T13:09:01;30.20;82.50
46364;DHT22;32071;49.036;9.344;2022-07-29T13:11:32;30.20;83.70
46364;DHT22;32071;49.036;9.344;2022-07-29T13:13:58;30.30;83.70
46364;DHT22;32071;49.036;9.344;2022-07-29T13:16:24;30.40;82.70
46364;DHT22;32071;49.036;9.344;2022-07-29T13:19:10;30.20;82.50
46364;DHT22;32071;49.036;9.344;2022-07-29T13:21:36;30.30;81.20
46364;DHT22;32071;49.036;9.344;2022-07-29T13:24:03;30.30;80.20
46364;DHT22;32071;49.036;9.344;2022-07-29T13:26:28;30.20;81.90
46364;DHT22;32071;49.036;9.344;2022-07-29T13:28:54;30.20;82.40
46364;DHT22;32071;49.036;9.344;2022-07-29T13:31:20;30.00;82.40
46364;DHT22;32071;49.036;9.344;2022-07-29T13:33:47;30.00;82.80
46364;DHT22;32071;49.036;9.344;2022-07-29T13:36:13;29.60;83.70
46364;DHT22;32071;49.036;9.344;2022-07-29T13:38:38;29.60;83.60
46364;DHT22;32071;49.036;9.344;2022-07-29T13:41:04;29.70;83.20
46364;DHT22;32071;49.036;9.344;2022-07-29T13:43:29;29.70;83.10
46364;DHT22;32071;49.036;9.344;2022-07-29T13:45:55;29.90;82.90
46364;DHT22;32071;49.036;9.344;2022-07-29T13:48:21;29.90;82.30
46364;DHT22;32071;49.036;9.344;2022-07-29T13:50:46;29.90;82.40
46364;DHT22;32071;49.036;9.344;2022-07-29T13:53:13;29.80;82.90
46364;DHT22;32071;49.036;9.344;2022-07-29T13:55:39;29.70;81.90
46364;DHT22;32071;49.036;9.344;2022-07-29T13:58:04;29.80;81.40
46364;DHT22;32071;49.036;9.344;2022-07-29T14:00:30;29.80;80.40
46364;DHT22;32071;49.036;9.344;2022-07-29T14:02:56;29.80;80.20
46364;DHT22;32071;49.036;9.344;2022-07-29T14:05:22;29.90;80.00
46364;DHT22;32071;49.036;9.344;2022-07-29T14:07:47;29.90;79.10
46364;DHT22;32071;49.036;9.344;2022-07-29T14:10:13;29.50;80.20
46364;DHT22;32071;49.036;9.344;2022-07-29T14:12:39;29.40;79.60
46364;DHT22;32071;49.036;9.344;2022-07-29T14:15:07;29.50;80.20
46364;DHT22;32071;49.036;9.344;2022-07-29T14:17:32;29.50;79.70
46364;DHT22;32071;49.036;9.344;2022-07-29T14:19:58;29.20;79.30
46364;DHT22;32071;49.036;9.344;2022-07-29T14:22:23;29.10;79.70
46364;DHT22;32071;49.036;9.344;2022-07-29T14:24:50;28.80;79.60
46364;DHT22;32071;49.036;9.344;2022-07-29T14:27:15;28.80;80.00
46364;DHT22;32071;49.036;9.344;2022-07-29T14:29:41;28.70;80.30
46364;DHT22;32071;49.036;9.344;2022-07-29T14:32:08;28.30;81.50
46364;DHT22;32071;49.036;9.344;2022-07-29T14:34:35;28.30;81.70
46364;DHT22;32071;49.036;9.344;2022-07-29T14:37:00;28.30;81.20
46364;DHT22;32071;49.036;9.344;2022-07-29T14:39:26;28.30;81.70
46364;DHT22;32071;49.036;9.344;2022-07-29T14:41:51;28.30;82.30
46364;DHT22;32071;49.036;9.344;2022-07-29T14:44:17;28.30;82.50
46364;DHT22;32071;49.036;9.344;2022-07-29T14:46:43;28.20;83.20
46364;DHT22;32071;49.036;9.344;2022-07-29T14:49:09;28.20;83.10
46364;DHT22;32071;49.036;9.344;2022-07-29T14:51:34;28.10;82.80
46364;DHT22;32071;49.036;9.344;2022-07-29T14:54:00;28.00;83.50
46364;DHT22;32071;49.036;9.344;2022-07-29T14:56:25;28.00;83.50
46364;DHT22;32071;49.036;9.344;2022-07-29T14:58:52;27.80;84.50
46364;DHT22;32071;49.036;9.344;2022-07-29T15:01:17;27.80;85.60
46364;DHT22;32071;49.036;9.344;2022-07-29T15:03:43;27.80;84.90
46364;DHT22;32071;49.036;9.344;2022-07-29T15:06:09;27.60;85.40
46364;DHT22;32071;49.036;9.344;2022-07-29T15:08:34;27.50;86.30
46364;DHT22;32071;49.036;9.344;2022-07-29T15:11:00;27.30;86.30
46364;DHT22;32071;49.036;9.344;2022-07-29T15:13:26;27.30;87.50
46364;DHT22;32071;49.036;9.344;2022-07-29T15:15:51;27.30;88.90
46364;DHT22;32071;49.036;9.344;2022-07-29T15:18:17;27.30;87.40
46364;DHT22;32071;49.036;9.344;2022-07-29T15:20:43;27.30;88.20
46364;DHT22;32071;49.036;9.344;2022-07-29T15:23:11;27.40;89.70
46364;DHT22;32071;49.036;9.344;2022-07-29T15:25:38;27.50;89.70
46364;DHT22;32071;49.036;9.344;2022-07-29T15:28:04;27.60;90.20
46364;DHT22;32071;49.036;9.344;2022-07-29T15:30:33;27.50;89.80
46364;DHT22;32071;49.036;9.344;2022-07-29T15:33:00;27.50;89.10
46364;DHT22;32071;49.036;9.344;2022-07-29T15:35:26;27.50;89.90
46364;DHT22;32071;49.036;9.344;2022-07-29T15:37:51;27.50;89.00
46364;DHT22;32071;49.036;9.344;2022-07-29T15:40:17;27.30;88.10
46364;DHT22;32071;49.036;9.344;2022-07-29T15:42:43;27.20;89.80
46364;DHT22;32071;49.036;9.344;2022-07-29T15:45:08;27.20;90.20
46364;DHT22;32071;49.036;9.344;2022-07-29T15:47:37;27.20;90.10
46364;DHT22;32071;49.036;9.344;2022-07-29T15:50:03;27.20;90.70
46364;DHT22;32071;49.036;9.344;2022-07-29T15:52:28;27.20;90.90
46364;DHT22;32071;49.036;9.344;2022-07-29T15:54:55;27.20;90.70
46364;DHT22;32071;49.036;9.344;2022-07-29T15:57:21;27.40;90.80
46364;DHT22;32071;49.036;9.344;2022-07-29T15:59:47;27.50;89.70
46364;DHT22;32071;49.036;9.344;2022-07-29T16:02:13;27.30;89.40
46364;DHT22;32071;49.036;9.344;2022-07-29T16:04:38;27.40;90.00
46364;DHT22;32071;49.036;9.344;2022-07-29T16:07:04;27.40;89.90
46364;DHT22;32071;49.036;9.344;2022-07-29T16:09:30;27.40;89.50
46364;DHT22;32071;49.036;9.344;2022-07-29T16:11:55;27.50;83.10
46364;DHT22;32071;49.036;9.344;2022-07-29T16:14:21;27.70;76.70
46364;DHT22;32071;49.036;9.344;2022-07-29T16:16:47;27.70;74.90
46364;DHT22;32071;49.036;9.344;2022-07-29T16:19:13;27.90;74.30
46364;DHT22;32071;49.036;9.344;2022-07-29T16:21:39;27.90;71.80
46364;DHT22;32071;49.036;9.344;2022-07-29T16:24:05;28.10;72.50
46364;DHT22;32071;49.036;9.344;2022-07-29T16:26:31;28.40;70.80
46364;DHT22;32071;49.036;9.344;2022-07-29T16:28:57;28.50;71.30
46364;DHT22;32071;49.036;9.344;2022-07-29T16:31:24;28.50;69.50
46364;DHT22;32071;49.036;9.344;2022-07-29T16:33:49;28.60;71.10
46364;DHT22;32071;49.036;9.344;2022-07-29T16:36:16;28.60;70.70
46364;DHT22;32071;49.036;9.344;2022-07-29T16:38:42;28.50;70.20
46364;DHT22;32071;49.036;9.344;2022-07-29T16:41:07;28.30;70.10
46364;DHT22;32071;49.036;9.344;2022-07-29T16:43:33;28.20;71.30
46364;DHT22;32071;49.036;9.344;2022-07-29T16:45:59;28.20;70.20
46364;DHT22;32071;49.036;9.344;2022-07-29T16:48:25;28.20;69.90
46364;DHT22;32071;49.036;9.344;2022-07-29T16:50:50;28.20;69.80
46364;DHT22;32071;49.036;9.344;2022-07-29T16:53:16;28.30;69.40
46364;DHT22;32071;49.036;9.344;2022-07-29T16:55:42;28.20;68.50
46364;DHT22;32071;49.036;9.344;2022-07-29T16:58:07;28.10;69.50
46364;DHT22;32071;49.036;9.344;2022-07-29T17:00:33;28.20;69.30
46364;DHT22;32071;49.036;9.344;2022-07-29T17:02:58;28.20;69.70
46364;DHT22;32071;49.036;9.344;2022-07-29T17:05:25;27.90;69.20
46364;DHT22;32071;49.036;9.344;2022-07-29T17:07:51;27.80;69.80
46364;DHT22;32071;49.036;9.344;2022-07-29T17:10:16;27.70;69.80
46364;DHT22;32071;49.036;9.344;2022-07-29T17:12:42;27.50;69.60
46364;DHT22;32071;49.036;9.344;2022-07-29T17:15:10;27.40;70.70
46364;DHT22;32071;49.036;9.344;2022-07-29T17:17:36;27.20;71.00
46364;DHT22;32071;49.036;9.344;2022-07-29T17:20:03;27.20;69.70
46364;DHT22;32071;49.036;9.344;2022-07-29T17:22:28;27.10;71.00
46364;DHT22;32071;49.036;9.344;2022-07-29T17:24:54;27.10;70.20
46364;DHT22;32071;49.036;9.344;2022-07-29T17:27:20;27.20;70.60
46364;DHT22;32071;49.036;9.344;2022-07-29T17:29:46;27.20;70.10
46364;DHT22;32071;49.036;9.344;2022-07-29T17:32:11;27.10;69.20
46364;DHT22;32071;49.036;9.344;2022-07-29T17:34:39;27.10;70.00
46364;DHT22;32071;49.036;9.344;2022-07-29T17:37:06;27.10;70.60
46364;DHT22;32071;49.036;9.344;2022-07-29T17:39:32;27.10;71.00
46364;DHT22;32071;49.036;9.344;2022-07-29T17:42:00;27.10;71.60
46364;DHT22;32071;49.036;9.344;2022-07-29T17:44:26;27.00;70.30
46364;DHT22;32071;49.036;9.344;2022-07-29T17:46:52;26.90;71.10
46364;DHT22;32071;49.036;9.344;2022-07-29T17:49:17;26.80;69.80
46364;DHT22;32071;49.036;9.344;2022-07-29T17:51:43;26.80;70.30
46364;DHT22;32071;49.036;9.344;2022-07-29T17:54:08;26.70;69.20
46364;DHT22;32071;49.036;9.344;2022-07-29T17:56:34;26.60;69.30
46364;DHT22;32071;49.036;9.344;2022-07-29T17:59:00;26.60;68.70
46364;DHT22;32071;49.036;9.344;2022-07-29T18:01:33;26.50;69.00
46364;DHT22;32071;49.036;9.344;2022-07-29T18:03:59;26.40;69.40
46364;DHT22;32071;49.036;9.344;2022-07-29T18:06:25;26.40;70.00
46364;DHT22;32071;49.036;9.344;2022-07-29T18:08:50;26.40;70.30
46364;DHT22;32071;49.036;9.344;2022-07-29T18:11:16;26.30;70.40
46364;DHT22;32071;49.036;9.344;2022-07-29T18:13:41;26.30;70.80
46364;DHT22;32071;49.036;9.344;2022-07-29T18:16:07;26.20;70.10
46364;DHT22;32071;49.036;9.344;2022-07-29T18:18:33;26.10;70.30
46364;DHT22;32071;49.036;9.344;2022-07-29T18:20:59;26.20;70.20
46364;DHT22;32071;49.036;9.344;2022-07-29T18:23:25;26.10;69.90
46364;DHT22;32071;49.036;9.344;2022-07-29T18:25:51;26.10;68.90
46364;DHT22;32071;49.036;9.344;2022-07-29T18:28:16;26.00;69.00
46364;DHT22;32071;49.036;9.344;2022-07-29T18:30:42;26.00;68.80
46364;DHT22;32071;49.036;9.344;2022-07-29T18:33:10;26.00;68.30
46364;DHT22;32071;49.036;9.344;2022-07-29T18:35:39;25.90;68.20
46364;DHT22;32071;49.036;9.344;2022-07-29T18:38:05;25.90;69.30
46364;DHT22;32071;49.036;9.344;2022-07-29T18:40:31;25.60;77.10
46364;DHT22;32071;49.036;9.344;2022-07-29T18:42:56;25.40;78.40
46364;DHT22;32071;49.036;9.344;2022-07-29T18:45:22;25.20;80.70
46364;DHT22;32071;49.036;9.344;2022-07-29T18:47:48;25.10;84.10
46364;DHT22;32071;49.036;9.344;2022-07-29T18:50:14;24.90;86.80
46364;DHT22;32071;49.036;9.344;2022-07-29T18:52:40;24.70;89.10
46364;DHT22;32071;49.036;9.344;2022-07-29T18:55:07;24.60;90.00
46364;DHT22;32071;49.036;9.344;2022-07-29T18:57:33;24.40;90.70
46364;DHT22;32071;49.036;9.344;2022-07-29T18:59:58;24.30;91.20
46364;DHT22;32071;49.036;9.344;2022-07-29T19:02:24;24.20;91.70
46364;DHT22;32071;49.036;9.344;2022-07-29T19:04:50;24.10;92.10
46364;DHT22;32071;49.036;9.344;2022-07-29T19:07:16;24.00;92.60
46364;DHT22;32071;49.036;9.344;2022-07-29T19:09:44;23.80;92.90
46364;DHT22;32071;49.036;9.344;2022-07-29T19:12:10;23.70;93.50
46364;DHT22;32071;49.036;9.344;2022-07-29T19:14:36;23.50;93.90
46364;DHT22;32071;49.036;9.344;2022-07-29T19:17:02;23.30;94.30
46364;DHT22;32071;49.036;9.344;2022-07-29T19:19:27;23.20;94.70
46364;DHT22;32071;49.036;9.344;2022-07-29T19:21:53;23.10;94.80
46364;DHT22;32071;49.036;9.344;2022-07-29T19:24:19;23.10;95.00
46364;DHT22;32071;49.036;9.344;2022-07-29T19:26:44;23.10;95.40
46364;DHT22;32071;49.036;9.344;2022-07-29T19:29:14;23.00;95.30
46364;DHT22;32071;49.036;9.344;2022-07-29T19:31:41;23.00;95.50
46364;DHT22;32071;49.036;9.344;2022-07-29T19:34:07;23.00;95.70
46364;DHT22;32071;49.036;9.344;2022-07-29T19:36:33;23.00;95.90
46364;DHT22;32071;49.036;9.344;2022-07-29T19:38:58;23.00;95.90
46364;DHT22;32071;49.036;9.344;2022-07-29T19:41:25;22.90;96.00
46364;DHT22;32071;49.036;9.344;2022-07-29T19:43:51;22.80;96.10
46364;DHT22;32071;49.036;9.344;2022-07-29T19:46:17;22.80;96.30
46364;DHT22;32071;49.036;9.344;2022-07-29T19:48:42;22.70;96.50
46364;DHT22;32071;49.036;9.344;2022-07-29T19:51:08;22.60;96.40
46364;DHT22;32071;49.036;9.344;2022-07-29T19:53:34;22.50;96.60
46364;DHT22;32071;49.036;9.344;2022-07-29T19:55:59;22.40;96.80
46364;DHT22;32071;49.036;9.344;2022-07-29T19:58:25;22.40;97.00
46364;DHT22;32071;49.036;9.344;2022-07-29T20:00:50;22.20;97.00
46364;DHT22;32071;49.036;9.344;2022-07-29T20:03:16;22.20;97.10
46364;DHT22;32071;49.036;9.344;2022-07-29T20:05:41;22.10;97.10
46364;DHT22;32071;49.036;9.344;2022-07-29T20:08:07;22.00;96.70
46364;DHT22;32071;49.036;9.344;2022-07-29T20:10:33;22.00;96.60
46364;DHT22;32071;49.036;9.344;2022-07-29T20:12:59;21.90;96.50
46364;DHT22;32071;49.036;9.344;2022-07-29T20:15:24;21.90;96.90
46364;DHT22;32071;49.036;9.344;2022-07-29T20:17:50;21.90;97.40
46364;DHT22;32071;49.036;9.344;2022-07-29T20:20:16;21.80;97.60
46364;DHT22;32071;49.036;9.344;2022-07-29T20:22:41;21.70;97.90
46364;DHT22;32071;49.036;9.344;2022-07-29T20:25:07;21.60;97.90
46364;DHT22;32071;49.036;9.344;2022-07-29T20:27:36;21.50;97.40
46364;DHT22;32071;49.036;9.344;2022-07-29T20:30:05;21.40;97.50
46364;DHT22;32071;49.036;9.344;2022-07-29T20:32:31;21.30;97.70
46364;DHT22;32071;49.036;9.344;2022-07-29T20:34:57;21.20;97.80
46364;DHT22;32071;49.036;9.344;2022-07-29T20:37:22;21.00;97.30
46364;DHT22;32071;49.036;9.344;2022-07-29T20:39:48;21.00;97.70
46364;DHT22;32071;49.036;9.344;2022-07-29T20:42:14;20.90;98.60
46364;DHT22;32071;49.036;9.344;2022-07-29T20:44:40;20.80;98.80
46364;DHT22;32071;49.036;9.344;2022-07-29T20:47:05;20.70;99.70
46364;DHT22;32071;49.036;9.344;2022-07-29T20:49:31;20.60;99.90
46364;DHT22;32071;49.036;9.344;2022-07-29T20:51:57;20.40;99.90
46364;DHT22;32071;49.036;9.344;2022-07-29T20:54:23;20.30;99.90
46364;DHT22;32071;49.036;9.344;2022-07-29T20:56:49;20.20;99.90
46364;DHT22;32071;49.036;9.344;2022-07-29T20:59:15;20.00;99.90
46364;DHT22;32071;49.036;9.344;2022-07-29T21:01:40;20.00;99.90
46364;DHT22;32071;49.036;9.344;2022-07-29T21:04:06;19.90;99.90
46364;DHT22;32071;49.036;9.344;2022-07-29T21:06:31;19.90;99.90
46364;DHT22;32071;49.036;9.344;2022-07-29T21:09:00;19.90;99.90
46364;DHT22;32071;49.036;9.344;2022-07-29T21:11:26;19.80;99.90
46364;DHT22;32071;49.036;9.344;2022-07-29T21:13:52;19.80;99.90
46364;DHT22;32071;49.036;9.344;2022-07-29T21:16:18;19.60;99.90
46364;DHT22;32071;49.036;9.344;2022-07-29T21:18:45;19.50;99.90
46364;DHT22;32071;49.036;9.344;2022-07-29T21:21:12;19.40;99.90
46364;DHT22;32071;49.036;9.344;2022-07-29T21:23:41;19.30;99.90
46364;DHT22;32071;49.036;9.344;2022-07-29T21:26:07;19.30;99.90
46364;DHT22;32071;49.036;9.344;2022-07-29T21:28:33;19.30;99.90
46364;DHT22;32071;49.036;9.344;2022-07-29T21:31:09;19.20;99.90
46364;DHT22;32071;49.036;9.344;2022-07-29T21:33:36;19.10;99.90
46364;DHT22;32071;49.036;9.344;2022-07-29T21:36:02;19.10;99.90
46364;DHT22;32071;49.036;9.344;2022-07-29T21:38:28;19.10;99.90
46364;DHT22;32071;49.036;9.344;2022-07-29T21:40:54;18.90;99.90
46364;DHT22;32071;49.036;9.344;2022-07-29T21:43:21;18.90;99.90
46364;DHT22;32071;49.036;9.344;2022-07-29T21:45:46;18.80;99.90
46364;DHT22;32071;49.036;9.344;2022-07-29T21:48:17;18.80;99.90
46364;DHT22;32071;49.036;9.344;2022-07-29T21:50:44;18.80;99.90
46364;DHT22;32071;49.036;9.344;2022-07-29T21:53:11;18.70;99.90
46364;DHT22;32071;49.036;9.344;2022-07-29T21:55:36;18.70;99.90
46364;DHT22;32071;49.036;9.344;2022-07-29T21:58:02;18.60;99.90
46364;DHT22;32071;49.036;9.344;2022-07-29T22:00:28;18.60;99.90
46364;DHT22;32071;49.036;9.344;2022-07-29T22:02:55;18.50;99.90
46364;DHT22;32071;49.036;9.344;2022-07-29T22:05:21;18.50;99.90
46364;DHT22;32071;49.036;9.344;2022-07-29T22:07:47;18.50;99.90
46364;DHT22;32071;49.036;9.344;2022-07-29T22:10:14;18.40;99.90
46364;DHT22;32071;49.036;9.344;2022-07-29T22:12:40;18.30;99.90
46364;DHT22;32071;49.036;9.344;2022-07-29T22:15:06;18.20;99.90
46364;DHT22;32071;49.036;9.344;2022-07-29T22:17:32;18.20;99.90
46364;DHT22;32071;49.036;9.344;2022-07-29T22:19:58;18.20;99.90
46364;DHT22;32071;49.036;9.344;2022-07-29T22:22:24;18.20;99.90
46364;DHT22;32071;49.036;9.344;2022-07-29T22:24:49;18.10;99.90
46364;DHT22;32071;49.036;9.344;2022-07-29T22:27:15;18.20;99.90
46364;DHT22;32071;49.036;9.344;2022-07-29T22:29:41;18.20;99.90
46364;DHT22;32071;49.036;9.344;2022-07-29T22:32:06;18.10;99.90
46364;DHT22;32071;49.036;9.344;2022-07-29T22:34:32;18.10;99.90
46364;DHT22;32071;49.036;9.344;2022-07-29T22:36:58;18.10;99.90
46364;DHT22;32071;49.036;9.344;2022-07-29T22:39:24;18.30;99.90
46364;DHT22;32071;49.036;9.344;2022-07-29T22:41:49;18.30;99.90
46364;DHT22;32071;49.036;9.344;2022-07-29T22:44:15;18.30;99.90
46364;DHT22;32071;49.036;9.344;2022-07-29T22:46:42;18.40;99.90
46364;DHT22;32071;49.036;9.344;2022-07-29T22:49:08;18.50;99.90
46364;DHT22;32071;49.036;9.344;2022-07-29T22:51:33;18.60;99.90
46364;DHT22;32071;49.036;9.344;2022-07-29T22:54:00;18.60;99.90
46364;DHT22;32071;49.036;9.344;2022-07-29T22:56:25;18.60;99.90
46364;DHT22;32071;49.036;9.344;2022-07-29T22:58:51;18.60;99.90
46364;DHT22;32071;49.036;9.344;2022-07-29T23:01:20;18.60;99.90
46364;DHT22;32071;49.036;9.344;2022-07-29T23:03:45;18.50;99.90
46364;DHT22;32071;49.036;9.344;2022-07-29T23:06:11;18.40;99.90
46364;DHT22;32071;49.036;9.344;2022-07-29T23:08:37;18.30;99.90
46364;DHT22;32071;49.036;9.344;2022-07-29T23:11:03;18.20;99.90
46364;DHT22;32071;49.036;9.344;2022-07-29T23:13:28;18.10;99.90
46364;DHT22;32071;49.036;9.344;2022-07-29T23:15:54;18.00;99.90
46364;DHT22;32071;49.036;9.344;2022-07-29T23:18:19;17.90;99.90
46364;DHT22;32071;49.036;9.344;2022-07-29T23:20:45;17.90;99.90
46364;DHT22;32071;49.036;9.344;2022-07-29T23:23:10;17.90;99.90
46364;DHT22;32071;49.036;9.344;2022-07-29T23:25:36;17.90;99.90
46364;DHT22;32071;49.036;9.344;2022-07-29T23:28:01;17.80;99.90
46364;DHT22;32071;49.036;9.344;2022-07-29T23:30:27;17.80;99.90
46364;DHT22;32071;49.036;9.344;2022-07-29T23:32:53;17.70;99.90
46364;DHT22;32071;49.036;9.344;2022-07-29T23:35:19;17.60;99.90
46364;DHT22;32071;49.036;9.344;2022-07-29T23:37:45;17.60;99.90
46364;DHT22;32071;49.036;9.344;2022-07-29T23:40:11;17.60;99.90
46364;DHT22;32071;49.036;9.344;2022-07-29T23:42:37;17.40;99.90
46364;DHT22;32071;49.036;9.344;2022-07-29T23:45:03;17.40;99.90
46364;DHT22;32071;49.036;9.344;2022-07-29T23:47:29;17.30;99.90
46364;DHT22;32071;49.036;9.344;2022-07-29T23:49:55;17.30;99.90
46364;DHT22;32071;49.036;9.344;2022-07-29T23:52:21;17.30;99.90
46364;DHT22;32071;49.036;9.344;2022-07-29T23:54:46;17.20;99.90
46364;DHT22;32071;49.036;9.344;2022-07-29T23:57:12;17.20;99.90
46364;DHT22;32071;49.036;9.344;2022-07-29T23:59:38;17.20;99.90
